Terminal Aerodrome Forecast
Issued by NWS Cleveland, OH

Home | Current Version | Previous Version | Graphics & Text | Print | Product List | Glossary On
Versions: 1 2 3 4 5 6 7 8 9 10 11 12 13 14 15 16 17 18
000
FTUS41 KCLE 201308 AAA
TAFCAK
TAF AMD
KCAK 201308Z 2013/2112 18010KT P6SM VCSH SCT060 BKN100
      TEMPO 2013/2015 24012G22KT 4SM -TSRA BKN045CB
     FM201500 21012KT P6SM SCT060
     FM201900 22015G25KT P6SM BKN050
     FM210000 25015G25KT 5SM -SHRA OVC035
      TEMPO 2100/2103 27020G40KT 2SM TSRA OVC020CB
     FM210500 27012KT P6SM BKN080=

USA.gov is the U.S. government's official web portal to all federal, state and local government web resources and services.